sensor_id;sensor_type;location;lat;lon;timestamp;P1;durP1;ratioP1;P2;durP2;ratioP2
60819;SDS011;46641;48.904;9.126;2023-12-22T00:04:28;3.43;;;1.70;;
60819;SDS011;46641;48.904;9.126;2023-12-22T00:09:19;3.20;;;1.30;;
60819;SDS011;46641;48.904;9.126;2023-12-22T00:14:09;2.93;;;1.73;;
60819;SDS011;46641;48.904;9.126;2023-12-22T00:18:59;3.63;;;1.60;;
60819;SDS011;46641;48.904;9.126;2023-12-22T00:23:49;3.60;;;1.60;;
60819;SDS011;46641;48.904;9.126;2023-12-22T00:28:40;3.70;;;1.60;;
60819;SDS011;46641;48.904;9.126;2023-12-22T00:33:30;1.33;;;1.17;;
60819;SDS011;46641;48.904;9.126;2023-12-22T00:38:20;3.45;;;1.50;;
60819;SDS011;46641;48.904;9.126;2023-12-22T00:43:10;0.88;;;0.80;;
60819;SDS011;46641;48.904;9.126;2023-12-22T00:48:01;1.00;;;0.83;;
60819;SDS011;46641;48.904;9.126;2023-12-22T00:52:51;1.02;;;1.02;;
60819;SDS011;46641;48.904;9.126;2023-12-22T00:57:41;1.90;;;1.27;;
60819;SDS011;46641;48.904;9.126;2023-12-22T01:02:32;1.00;;;0.90;;
60819;SDS011;46641;48.904;9.126;2023-12-22T01:07:22;3.72;;;1.20;;
60819;SDS011;46641;48.904;9.126;2023-12-22T01:12:13;3.15;;;1.38;;
60819;SDS011;46641;48.904;9.126;2023-12-22T01:17:03;1.75;;;1.55;;
60819;SDS011;46641;48.904;9.126;2023-12-22T01:21:53;3.17;;;1.73;;
60819;SDS011;46641;48.904;9.126;2023-12-22T01:26:44;4.13;;;1.97;;
60819;SDS011;46641;48.904;9.126;2023-12-22T01:31:34;1.73;;;1.33;;
60819;SDS011;46641;48.904;9.126;2023-12-22T01:36:24;4.47;;;2.08;;
60819;SDS011;46641;48.904;9.126;2023-12-22T01:41:14;3.83;;;2.00;;
60819;SDS011;46641;48.904;9.126;2023-12-22T01:46:05;4.60;;;1.80;;
60819;SDS011;46641;48.904;9.126;2023-12-22T01:50:58;7.40;;;2.07;;
60819;SDS011;46641;48.904;9.126;2023-12-22T01:55:51;4.23;;;1.63;;
60819;SDS011;46641;48.904;9.126;2023-12-22T02:00:44;2.90;;;1.57;;
60819;SDS011;46641;48.904;9.126;2023-12-22T02:05:35;4.23;;;1.70;;
60819;SDS011;46641;48.904;9.126;2023-12-22T02:10:25;2.57;;;1.37;;
60819;SDS011;46641;48.904;9.126;2023-12-22T02:15:15;2.43;;;1.23;;
60819;SDS011;46641;48.904;9.126;2023-12-22T02:20:06;3.53;;;1.23;;
60819;SDS011;46641;48.904;9.126;2023-12-22T02:24:57;2.93;;;1.10;;
60819;SDS011;46641;48.904;9.126;2023-12-22T02:29:48;2.35;;;0.75;;
60819;SDS011;46641;48.904;9.126;2023-12-22T02:34:42;3.20;;;1.03;;
60819;SDS011;46641;48.904;9.126;2023-12-22T02:39:36;5.10;;;1.10;;
60819;SDS011;46641;48.904;9.126;2023-12-22T02:44:27;1.50;;;1.20;;
60819;SDS011;46641;48.904;9.126;2023-12-22T02:49:18;3.20;;;1.20;;
60819;SDS011;46641;48.904;9.126;2023-12-22T02:54:08;3.13;;;1.30;;
60819;SDS011;46641;48.904;9.126;2023-12-22T02:58:59;1.92;;;1.30;;
60819;SDS011;46641;48.904;9.126;2023-12-22T03:03:49;2.47;;;1.05;;
60819;SDS011;46641;48.904;9.126;2023-12-22T03:08:39;1.92;;;1.10;;
60819;SDS011;46641;48.904;9.126;2023-12-22T03:13:29;4.47;;;1.20;;
60819;SDS011;46641;48.904;9.126;2023-12-22T03:18:20;3.70;;;1.45;;
60819;SDS011;46641;48.904;9.126;2023-12-22T03:23:10;2.40;;;1.42;;
60819;SDS011;46641;48.904;9.126;2023-12-22T03:28:00;2.60;;;1.57;;
60819;SDS011;46641;48.904;9.126;2023-12-22T03:32:50;2.67;;;1.73;;
60819;SDS011;46641;48.904;9.126;2023-12-22T03:37:41;3.38;;;1.58;;
60819;SDS011;46641;48.904;9.126;2023-12-22T03:42:31;5.90;;;2.20;;
60819;SDS011;46641;48.904;9.126;2023-12-22T03:47:21;4.03;;;1.80;;
60819;SDS011;46641;48.904;9.126;2023-12-22T03:52:12;5.87;;;1.83;;
60819;SDS011;46641;48.904;9.126;2023-12-22T03:57:02;4.40;;;1.30;;
60819;SDS011;46641;48.904;9.126;2023-12-22T04:01:53;2.53;;;1.77;;
60819;SDS011;46641;48.904;9.126;2023-12-22T04:06:43;1.57;;;1.20;;
60819;SDS011;46641;48.904;9.126;2023-12-22T04:11:33;2.50;;;1.00;;
60819;SDS011;46641;48.904;9.126;2023-12-22T04:16:26;2.43;;;1.33;;
60819;SDS011;46641;48.904;9.126;2023-12-22T04:21:16;2.72;;;1.70;;
60819;SDS011;46641;48.904;9.126;2023-12-22T04:26:06;5.75;;;2.35;;
60819;SDS011;46641;48.904;9.126;2023-12-22T04:30:57;4.50;;;2.00;;
60819;SDS011;46641;48.904;9.126;2023-12-22T04:35:47;4.40;;;2.03;;
60819;SDS011;46641;48.904;9.126;2023-12-22T04:40:37;5.10;;;2.10;;
60819;SDS011;46641;48.904;9.126;2023-12-22T04:45:28;4.95;;;1.67;;
60819;SDS011;46641;48.904;9.126;2023-12-22T04:50:18;3.17;;;1.52;;
60819;SDS011;46641;48.904;9.126;2023-12-22T04:55:08;6.93;;;2.10;;
60819;SDS011;46641;48.904;9.126;2023-12-22T04:59:58;6.90;;;2.97;;
60819;SDS011;46641;48.904;9.126;2023-12-22T05:04:49;5.28;;;2.05;;
60819;SDS011;46641;48.904;9.126;2023-12-22T05:09:43;5.07;;;1.77;;
60819;SDS011;46641;48.904;9.126;2023-12-22T05:14:33;3.63;;;1.87;;
60819;SDS011;46641;48.904;9.126;2023-12-22T05:19:23;6.30;;;2.40;;
60819;SDS011;46641;48.904;9.126;2023-12-22T05:24:14;7.53;;;2.42;;
60819;SDS011;46641;48.904;9.126;2023-12-22T05:29:04;6.03;;;2.10;;
60819;SDS011;46641;48.904;9.126;2023-12-22T05:33:54;5.60;;;2.10;;
60819;SDS011;46641;48.904;9.126;2023-12-22T05:38:44;4.10;;;1.87;;
60819;SDS011;46641;48.904;9.126;2023-12-22T05:43:36;4.87;;;2.00;;
60819;SDS011;46641;48.904;9.126;2023-12-22T05:48:26;8.03;;;3.13;;
60819;SDS011;46641;48.904;9.126;2023-12-22T05:53:17;6.70;;;2.10;;
60819;SDS011;46641;48.904;9.126;2023-12-22T05:58:08;7.82;;;2.40;;
60819;SDS011;46641;48.904;9.126;2023-12-22T06:02:58;6.90;;;2.90;;
60819;SDS011;46641;48.904;9.126;2023-12-22T06:07:51;5.30;;;2.73;;
60819;SDS011;46641;48.904;9.126;2023-12-22T06:12:41;7.05;;;2.70;;
60819;SDS011;46641;48.904;9.126;2023-12-22T06:17:31;8.70;;;2.83;;
60819;SDS011;46641;48.904;9.126;2023-12-22T06:22:22;5.95;;;2.63;;
60819;SDS011;46641;48.904;9.126;2023-12-22T06:27:13;6.47;;;2.70;;
60819;SDS011;46641;48.904;9.126;2023-12-22T06:32:03;7.75;;;2.88;;
60819;SDS011;46641;48.904;9.126;2023-12-22T06:36:56;6.27;;;2.50;;
60819;SDS011;46641;48.904;9.126;2023-12-22T06:41:46;7.63;;;2.42;;
60819;SDS011;46641;48.904;9.126;2023-12-22T06:46:36;6.60;;;2.30;;
60819;SDS011;46641;48.904;9.126;2023-12-22T06:51:28;5.20;;;2.13;;
60819;SDS011;46641;48.904;9.126;2023-12-22T06:56:24;5.17;;;2.27;;
60819;SDS011;46641;48.904;9.126;2023-12-22T07:01:23;4.73;;;2.63;;
60819;SDS011;46641;48.904;9.126;2023-12-22T07:06:22;5.63;;;2.27;;
60819;SDS011;46641;48.904;9.126;2023-12-22T07:11:13;4.70;;;2.30;;
60819;SDS011;46641;48.904;9.126;2023-12-22T07:16:03;10.85;;;3.40;;
60819;SDS011;46641;48.904;9.126;2023-12-22T07:20:55;8.57;;;3.13;;
60819;SDS011;46641;48.904;9.126;2023-12-22T07:25:45;11.60;;;2.97;;
60819;SDS011;46641;48.904;9.126;2023-12-22T07:30:35;9.75;;;3.53;;
60819;SDS011;46641;48.904;9.126;2023-12-22T07:35:26;5.67;;;2.70;;
60819;SDS011;46641;48.904;9.126;2023-12-22T07:40:16;5.23;;;2.60;;
60819;SDS011;46641;48.904;9.126;2023-12-22T07:45:07;5.63;;;2.20;;
60819;SDS011;46641;48.904;9.126;2023-12-22T07:49:57;6.90;;;2.20;;
60819;SDS011;46641;48.904;9.126;2023-12-22T07:54:47;5.50;;;2.35;;
60819;SDS011;46641;48.904;9.126;2023-12-22T07:59:38;8.33;;;2.97;;
60819;SDS011;46641;48.904;9.126;2023-12-22T08:04:28;5.65;;;2.67;;
60819;SDS011;46641;48.904;9.126;2023-12-22T08:09:18;3.60;;;2.00;;
60819;SDS011;46641;48.904;9.126;2023-12-22T08:14:09;7.43;;;2.63;;
60819;SDS011;46641;48.904;9.126;2023-12-22T08:18:59;8.02;;;2.78;;
60819;SDS011;46641;48.904;9.126;2023-12-22T08:23:50;6.63;;;2.60;;
60819;SDS011;46641;48.904;9.126;2023-12-22T08:28:41;9.52;;;2.90;;
60819;SDS011;46641;48.904;9.126;2023-12-22T08:33:31;4.60;;;2.03;;
60819;SDS011;46641;48.904;9.126;2023-12-22T08:38:21;7.50;;;2.83;;
60819;SDS011;46641;48.904;9.126;2023-12-22T08:43:11;9.10;;;2.57;;
60819;SDS011;46641;48.904;9.126;2023-12-22T08:48:02;8.27;;;2.70;;
60819;SDS011;46641;48.904;9.126;2023-12-22T08:52:53;7.17;;;3.43;;
60819;SDS011;46641;48.904;9.126;2023-12-22T08:57:43;11.07;;;3.60;;
60819;SDS011;46641;48.904;9.126;2023-12-22T09:02:34;9.73;;;3.40;;
60819;SDS011;46641;48.904;9.126;2023-12-22T09:07:24;10.60;;;3.00;;
60819;SDS011;46641;48.904;9.126;2023-12-22T09:12:14;8.40;;;3.47;;
60819;SDS011;46641;48.904;9.126;2023-12-22T09:17:06;10.63;;;3.97;;
60819;SDS011;46641;48.904;9.126;2023-12-22T09:21:56;12.30;;;4.13;;
60819;SDS011;46641;48.904;9.126;2023-12-22T09:26:46;11.93;;;3.73;;
60819;SDS011;46641;48.904;9.126;2023-12-22T09:31:37;11.23;;;3.80;;
60819;SDS011;46641;48.904;9.126;2023-12-22T09:36:27;8.00;;;3.20;;
60819;SDS011;46641;48.904;9.126;2023-12-22T09:41:17;10.50;;;4.20;;
60819;SDS011;46641;48.904;9.126;2023-12-22T09:46:08;11.53;;;4.57;;
60819;SDS011;46641;48.904;9.126;2023-12-22T09:50:59;10.70;;;4.53;;
60819;SDS011;46641;48.904;9.126;2023-12-22T09:55:51;9.30;;;3.37;;
60819;SDS011;46641;48.904;9.126;2023-12-22T10:00:43;6.97;;;3.10;;
60819;SDS011;46641;48.904;9.126;2023-12-22T10:05:34;4.97;;;2.43;;
60819;SDS011;46641;48.904;9.126;2023-12-22T10:10:24;12.83;;;4.37;;
60819;SDS011;46641;48.904;9.126;2023-12-22T10:15:15;6.37;;;2.40;;
60819;SDS011;46641;48.904;9.126;2023-12-22T10:20:06;12.37;;;3.50;;
60819;SDS011;46641;48.904;9.126;2023-12-22T10:24:58;6.90;;;2.13;;
60819;SDS011;46641;48.904;9.126;2023-12-22T10:29:49;9.37;;;2.47;;
60819;SDS011;46641;48.904;9.126;2023-12-22T10:34:40;8.80;;;2.93;;
60819;SDS011;46641;48.904;9.126;2023-12-22T10:39:30;9.97;;;3.90;;
60819;SDS011;46641;48.904;9.126;2023-12-22T10:44:23;15.43;;;4.85;;
60819;SDS011;46641;48.904;9.126;2023-12-22T10:49:17;10.37;;;4.00;;
60819;SDS011;46641;48.904;9.126;2023-12-22T10:54:07;10.53;;;3.73;;
60819;SDS011;46641;48.904;9.126;2023-12-22T10:58:58;9.03;;;3.13;;
60819;SDS011;46641;48.904;9.126;2023-12-22T11:03:50;6.47;;;2.70;;
60819;SDS011;46641;48.904;9.126;2023-12-22T11:08:41;6.77;;;2.80;;
60819;SDS011;46641;48.904;9.126;2023-12-22T11:13:33;6.37;;;2.27;;
60819;SDS011;46641;48.904;9.126;2023-12-22T11:18:24;7.23;;;2.73;;
60819;SDS011;46641;48.904;9.126;2023-12-22T11:23:16;8.93;;;2.40;;
60819;SDS011;46641;48.904;9.126;2023-12-22T11:28:08;4.03;;;1.80;;
60819;SDS011;46641;48.904;9.126;2023-12-22T11:33:00;3.47;;;2.00;;
60819;SDS011;46641;48.904;9.126;2023-12-22T11:37:51;6.13;;;1.70;;
60819;SDS011;46641;48.904;9.126;2023-12-22T11:42:43;5.57;;;2.10;;
60819;SDS011;46641;48.904;9.126;2023-12-22T11:47:38;3.57;;;1.07;;
60819;SDS011;46641;48.904;9.126;2023-12-22T11:52:28;3.53;;;1.30;;
60819;SDS011;46641;48.904;9.126;2023-12-22T12:02:18;2.50;;;1.40;;
60819;SDS011;46641;48.904;9.126;2023-12-22T12:12:31;2.67;;;1.40;;
60819;SDS011;46641;48.904;9.126;2023-12-22T12:17:24;5.53;;;1.77;;
60819;SDS011;46641;48.904;9.126;2023-12-22T12:22:14;1.77;;;0.90;;
60819;SDS011;46641;48.904;9.126;2023-12-22T12:27:04;2.90;;;1.07;;
60819;SDS011;46641;48.904;9.126;2023-12-22T12:32:02;1.60;;;0.90;;
60819;SDS011;46641;48.904;9.126;2023-12-22T12:36:53;3.63;;;1.40;;
60819;SDS011;46641;48.904;9.126;2023-12-22T12:41:44;1.23;;;1.00;;
60819;SDS011;46641;48.904;9.126;2023-12-22T12:46:43;1.00;;;0.90;;
60819;SDS011;46641;48.904;9.126;2023-12-22T12:51:39;0.77;;;0.77;;
60819;SDS011;46641;48.904;9.126;2023-12-22T12:56:38;1.07;;;0.97;;
60819;SDS011;46641;48.904;9.126;2023-12-22T13:01:29;0.63;;;0.60;;
60819;SDS011;46641;48.904;9.126;2023-12-22T13:06:20;0.55;;;0.55;;
60819;SDS011;46641;48.904;9.126;2023-12-22T13:11:10;2.00;;;0.67;;
60819;SDS011;46641;48.904;9.126;2023-12-22T13:16:01;1.40;;;0.70;;
60819;SDS011;46641;48.904;9.126;2023-12-22T13:20:51;1.07;;;0.70;;
60819;SDS011;46641;48.904;9.126;2023-12-22T13:25:42;2.13;;;0.70;;
60819;SDS011;46641;48.904;9.126;2023-12-22T13:30:35;0.80;;;0.80;;
60819;SDS011;46641;48.904;9.126;2023-12-22T13:35:28;1.53;;;0.80;;
60819;SDS011;46641;48.904;9.126;2023-12-22T13:40:19;1.30;;;0.87;;
60819;SDS011;46641;48.904;9.126;2023-12-22T13:45:12;0.87;;;0.87;;
60819;SDS011;46641;48.904;9.126;2023-12-22T13:50:02;0.83;;;0.80;;
60819;SDS011;46641;48.904;9.126;2023-12-22T13:54:53;1.97;;;0.80;;
60819;SDS011;46641;48.904;9.126;2023-12-22T13:59:46;0.60;;;0.57;;
60819;SDS011;46641;48.904;9.126;2023-12-22T14:04:36;1.08;;;0.80;;
60819;SDS011;46641;48.904;9.126;2023-12-22T14:09:27;0.93;;;0.77;;
60819;SDS011;46641;48.904;9.126;2023-12-22T14:14:21;1.00;;;1.00;;
60819;SDS011;46641;48.904;9.126;2023-12-22T14:19:12;0.97;;;0.73;;
60819;SDS011;46641;48.904;9.126;2023-12-22T14:24:02;2.43;;;0.60;;
60819;SDS011;46641;48.904;9.126;2023-12-22T14:28:53;0.60;;;0.60;;
60819;SDS011;46641;48.904;9.126;2023-12-22T14:33:43;0.80;;;0.80;;
60819;SDS011;46641;48.904;9.126;2023-12-22T14:38:33;0.68;;;0.68;;
60819;SDS011;46641;48.904;9.126;2023-12-22T14:43:24;1.50;;;0.90;;
60819;SDS011;46641;48.904;9.126;2023-12-22T14:48:14;0.77;;;0.67;;
60819;SDS011;46641;48.904;9.126;2023-12-22T14:53:04;0.85;;;0.82;;
60819;SDS011;46641;48.904;9.126;2023-12-22T14:57:54;1.35;;;0.77;;
60819;SDS011;46641;48.904;9.126;2023-12-22T15:02:45;1.17;;;0.80;;
60819;SDS011;46641;48.904;9.126;2023-12-22T15:07:35;0.70;;;0.70;;
60819;SDS011;46641;48.904;9.126;2023-12-22T15:12:26;0.97;;;0.97;;
60819;SDS011;46641;48.904;9.126;2023-12-22T15:17:18;0.90;;;0.90;;
60819;SDS011;46641;48.904;9.126;2023-12-22T15:22:11;1.07;;;0.60;;
60819;SDS011;46641;48.904;9.126;2023-12-22T15:27:02;0.90;;;0.90;;
60819;SDS011;46641;48.904;9.126;2023-12-22T15:31:52;0.70;;;0.70;;
60819;SDS011;46641;48.904;9.126;2023-12-22T15:36:49;0.70;;;0.70;;
60819;SDS011;46641;48.904;9.126;2023-12-22T15:41:40;0.97;;;0.97;;
60819;SDS011;46641;48.904;9.126;2023-12-22T15:46:30;0.60;;;0.60;;
60819;SDS011;46641;48.904;9.126;2023-12-22T15:51:21;2.27;;;1.00;;
60819;SDS011;46641;48.904;9.126;2023-12-22T15:56:12;1.43;;;0.93;;
60819;SDS011;46641;48.904;9.126;2023-12-22T16:01:03;0.90;;;0.80;;
60819;SDS011;46641;48.904;9.126;2023-12-22T16:05:53;0.70;;;0.70;;
60819;SDS011;46641;48.904;9.126;2023-12-22T16:10:44;0.60;;;0.60;;
60819;SDS011;46641;48.904;9.126;2023-12-22T16:15:34;0.75;;;0.75;;
60819;SDS011;46641;48.904;9.126;2023-12-22T16:20:24;0.90;;;0.67;;
60819;SDS011;46641;48.904;9.126;2023-12-22T16:25:15;0.40;;;0.40;;
60819;SDS011;46641;48.904;9.126;2023-12-22T16:30:06;0.70;;;0.70;;
60819;SDS011;46641;48.904;9.126;2023-12-22T16:34:57;0.90;;;0.83;;
60819;SDS011;46641;48.904;9.126;2023-12-22T16:39:48;0.70;;;0.70;;
60819;SDS011;46641;48.904;9.126;2023-12-22T16:44:40;0.77;;;0.70;;
60819;SDS011;46641;48.904;9.126;2023-12-22T16:49:30;1.20;;;1.10;;
60819;SDS011;46641;48.904;9.126;2023-12-22T16:54:20;2.10;;;1.10;;
60819;SDS011;46641;48.904;9.126;2023-12-22T16:59:11;1.15;;;1.10;;
60819;SDS011;46641;48.904;9.126;2023-12-22T17:04:01;0.98;;;0.95;;
60819;SDS011;46641;48.904;9.126;2023-12-22T17:08:51;2.30;;;1.17;;
60819;SDS011;46641;48.904;9.126;2023-12-22T17:13:42;0.80;;;0.80;;
60819;SDS011;46641;48.904;9.126;2023-12-22T17:18:32;1.40;;;1.20;;
60819;SDS011;46641;48.904;9.126;2023-12-22T17:23:22;0.93;;;0.90;;
60819;SDS011;46641;48.904;9.126;2023-12-22T17:28:12;1.27;;;1.00;;
60819;SDS011;46641;48.904;9.126;2023-12-22T17:33:03;1.50;;;0.88;;
60819;SDS011;46641;48.904;9.126;2023-12-22T17:37:53;0.87;;;0.87;;
60819;SDS011;46641;48.904;9.126;2023-12-22T17:42:43;1.40;;;1.30;;
60819;SDS011;46641;48.904;9.126;2023-12-22T17:47:34;1.17;;;0.90;;
60819;SDS011;46641;48.904;9.126;2023-12-22T17:52:24;1.33;;;1.20;;
60819;SDS011;46641;48.904;9.126;2023-12-22T17:57:14;2.47;;;1.20;;
60819;SDS011;46641;48.904;9.126;2023-12-22T18:02:05;1.17;;;0.97;;
60819;SDS011;46641;48.904;9.126;2023-12-22T18:06:56;3.10;;;1.03;;
60819;SDS011;46641;48.904;9.126;2023-12-22T18:11:46;1.40;;;1.30;;
60819;SDS011;46641;48.904;9.126;2023-12-22T18:16:37;1.83;;;1.00;;
60819;SDS011;46641;48.904;9.126;2023-12-22T18:21:31;1.50;;;0.83;;
60819;SDS011;46641;48.904;9.126;2023-12-22T18:26:22;1.37;;;1.17;;
60819;SDS011;46641;48.904;9.126;2023-12-22T18:31:12;1.33;;;0.87;;
60819;SDS011;46641;48.904;9.126;2023-12-22T18:36:03;1.13;;;1.03;;
60819;SDS011;46641;48.904;9.126;2023-12-22T18:40:54;2.07;;;1.10;;
60819;SDS011;46641;48.904;9.126;2023-12-22T18:45:44;1.25;;;1.10;;
60819;SDS011;46641;48.904;9.126;2023-12-22T18:50:34;0.77;;;0.77;;
60819;SDS011;46641;48.904;9.126;2023-12-22T18:55:25;0.70;;;0.70;;
60819;SDS011;46641;48.904;9.126;2023-12-22T19:00:15;1.93;;;1.00;;
60819;SDS011;46641;48.904;9.126;2023-12-22T19:05:06;1.00;;;1.00;;
60819;SDS011;46641;48.904;9.126;2023-12-22T19:09:56;1.00;;;0.90;;
60819;SDS011;46641;48.904;9.126;2023-12-22T19:14:47;0.80;;;0.80;;
60819;SDS011;46641;48.904;9.126;2023-12-22T19:19:39;2.10;;;1.27;;
60819;SDS011;46641;48.904;9.126;2023-12-22T19:24:30;0.70;;;0.70;;
60819;SDS011;46641;48.904;9.126;2023-12-22T19:29:21;1.80;;;1.10;;
60819;SDS011;46641;48.904;9.126;2023-12-22T19:34:11;2.17;;;1.40;;
60819;SDS011;46641;48.904;9.126;2023-12-22T19:39:02;1.50;;;1.40;;
60819;SDS011;46641;48.904;9.126;2023-12-22T19:43:53;1.43;;;0.97;;
60819;SDS011;46641;48.904;9.126;2023-12-22T19:48:43;1.40;;;1.20;;
60819;SDS011;46641;48.904;9.126;2023-12-22T19:53:33;2.13;;;1.30;;
60819;SDS011;46641;48.904;9.126;2023-12-22T19:58:23;1.10;;;0.98;;
60819;SDS011;46641;48.904;9.126;2023-12-22T20:03:14;1.93;;;0.80;;
60819;SDS011;46641;48.904;9.126;2023-12-22T20:08:04;1.67;;;1.30;;
60819;SDS011;46641;48.904;9.126;2023-12-22T20:12:54;1.00;;;0.90;;
60819;SDS011;46641;48.904;9.126;2023-12-22T20:17:45;2.92;;;1.38;;
60819;SDS011;46641;48.904;9.126;2023-12-22T20:22:36;2.83;;;1.30;;
60819;SDS011;46641;48.904;9.126;2023-12-22T20:27:26;2.80;;;1.40;;
60819;SDS011;46641;48.904;9.126;2023-12-22T20:32:16;2.50;;;1.30;;
60819;SDS011;46641;48.904;9.126;2023-12-22T20:37:07;2.10;;;1.20;;
60819;SDS011;46641;48.904;9.126;2023-12-22T20:41:57;2.47;;;1.47;;
60819;SDS011;46641;48.904;9.126;2023-12-22T20:46:47;2.28;;;1.55;;
60819;SDS011;46641;48.904;9.126;2023-12-22T20:51:41;3.87;;;1.70;;
60819;SDS011;46641;48.904;9.126;2023-12-22T20:56:31;3.50;;;1.73;;
60819;SDS011;46641;48.904;9.126;2023-12-22T21:01:22;2.63;;;1.80;;
60819;SDS011;46641;48.904;9.126;2023-12-22T21:06:13;3.67;;;1.77;;
60819;SDS011;46641;48.904;9.126;2023-12-22T21:11:04;1.90;;;1.43;;
60819;SDS011;46641;48.904;9.126;2023-12-22T21:15:54;3.30;;;1.50;;
60819;SDS011;46641;48.904;9.126;2023-12-22T21:20:44;3.50;;;1.40;;
60819;SDS011;46641;48.904;9.126;2023-12-22T21:25:35;2.60;;;1.40;;
60819;SDS011;46641;48.904;9.126;2023-12-22T21:30:25;6.67;;;1.90;;
60819;SDS011;46641;48.904;9.126;2023-12-22T21:35:17;2.73;;;1.30;;
60819;SDS011;46641;48.904;9.126;2023-12-22T21:40:08;4.13;;;2.30;;
60819;SDS011;46641;48.904;9.126;2023-12-22T21:44:59;2.80;;;1.53;;
60819;SDS011;46641;48.904;9.126;2023-12-22T21:49:49;2.80;;;1.63;;
60819;SDS011;46641;48.904;9.126;2023-12-22T21:54:40;4.68;;;2.03;;
60819;SDS011;46641;48.904;9.126;2023-12-22T21:59:30;2.30;;;1.47;;
60819;SDS011;46641;48.904;9.126;2023-12-22T22:04:20;3.97;;;1.60;;
60819;SDS011;46641;48.904;9.126;2023-12-22T22:09:11;3.77;;;1.63;;
60819;SDS011;46641;48.904;9.126;2023-12-22T22:14:02;3.73;;;1.87;;
60819;SDS011;46641;48.904;9.126;2023-12-22T22:18:52;3.20;;;1.70;;
60819;SDS011;46641;48.904;9.126;2023-12-22T22:23:43;2.08;;;1.50;;
60819;SDS011;46641;48.904;9.126;2023-12-22T22:28:33;3.15;;;1.55;;
60819;SDS011;46641;48.904;9.126;2023-12-22T22:33:23;2.67;;;1.70;;
60819;SDS011;46641;48.904;9.126;2023-12-22T22:38:13;3.97;;;1.80;;
60819;SDS011;46641;48.904;9.126;2023-12-22T22:43:04;4.03;;;1.60;;
60819;SDS011;46641;48.904;9.126;2023-12-22T22:47:54;3.53;;;2.00;;
60819;SDS011;46641;48.904;9.126;2023-12-22T22:52:44;4.13;;;1.58;;
60819;SDS011;46641;48.904;9.126;2023-12-22T22:57:34;3.33;;;1.52;;
60819;SDS011;46641;48.904;9.126;2023-12-22T23:02:25;4.40;;;1.67;;
60819;SDS011;46641;48.904;9.126;2023-12-22T23:07:16;4.53;;;1.87;;
60819;SDS011;46641;48.904;9.126;2023-12-22T23:12:06;3.03;;;1.80;;
60819;SDS011;46641;48.904;9.126;2023-12-22T23:16:56;3.90;;;1.57;;
60819;SDS011;46641;48.904;9.126;2023-12-22T23:21:47;3.73;;;2.20;;
60819;SDS011;46641;48.904;9.126;2023-12-22T23:26:40;2.95;;;1.77;;
60819;SDS011;46641;48.904;9.126;2023-12-22T23:31:31;6.10;;;1.97;;
60819;SDS011;46641;48.904;9.126;2023-12-22T23:36:22;3.37;;;1.80;;
60819;SDS011;46641;48.904;9.126;2023-12-22T23:41:12;6.63;;;2.60;;
60819;SDS011;46641;48.904;9.126;2023-12-22T23:46:02;5.60;;;2.40;;
60819;SDS011;46641;48.904;9.126;2023-12-22T23:50:53;6.00;;;2.10;;
60819;SDS011;46641;48.904;9.126;2023-12-22T23:55:43;5.47;;;2.60;;
